sensor_id;sensor_type;location;lat;lon;timestamp;P1;durP1;ratioP1;P2;durP2;ratioP2
14141;SDS011;7151;52.246;4.820;2023-07-02T00:00:53;7.47;;;3.20;;
14141;SDS011;7151;52.246;4.820;2023-07-02T00:03:20;9.17;;;3.27;;
14141;SDS011;7151;52.246;4.820;2023-07-02T00:05:46;8.50;;;3.43;;
14141;SDS011;7151;52.246;4.820;2023-07-02T00:08:15;7.70;;;3.60;;
14141;SDS011;7151;52.246;4.820;2023-07-02T00:10:40;9.90;;;3.93;;
14141;SDS011;7151;52.246;4.820;2023-07-02T00:13:06;5.73;;;2.87;;
14141;SDS011;7151;52.246;4.820;2023-07-02T00:15:32;6.57;;;3.40;;
14141;SDS011;7151;52.246;4.820;2023-07-02T00:17:57;10.40;;;4.17;;
14141;SDS011;7151;52.246;4.820;2023-07-02T00:20:23;8.67;;;3.67;;
14141;SDS011;7151;52.246;4.820;2023-07-02T00:22:49;5.63;;;4.17;;
14141;SDS011;7151;52.246;4.820;2023-07-02T00:25:15;7.43;;;3.80;;
14141;SDS011;7151;52.246;4.820;2023-07-02T00:27:40;8.00;;;3.60;;
14141;SDS011;7151;52.246;4.820;2023-07-02T00:30:07;5.20;;;3.30;;
14141;SDS011;7151;52.246;4.820;2023-07-02T00:32:33;13.17;;;4.20;;
14141;SDS011;7151;52.246;4.820;2023-07-02T00:34:58;8.90;;;4.00;;
14141;SDS011;7151;52.246;4.820;2023-07-02T00:37:24;5.27;;;3.73;;
14141;SDS011;7151;52.246;4.820;2023-07-02T00:39:49;7.80;;;3.17;;
14141;SDS011;7151;52.246;4.820;2023-07-02T00:42:15;8.23;;;3.93;;
14141;SDS011;7151;52.246;4.820;2023-07-02T00:44:41;6.13;;;3.30;;
14141;SDS011;7151;52.246;4.820;2023-07-02T00:47:07;8.20;;;3.90;;
14141;SDS011;7151;52.246;4.820;2023-07-02T00:49:33;11.23;;;3.97;;
14141;SDS011;7151;52.246;4.820;2023-07-02T00:51:59;6.47;;;3.80;;
14141;SDS011;7151;52.246;4.820;2023-07-02T00:54:27;6.67;;;3.73;;
14141;SDS011;7151;52.246;4.820;2023-07-02T00:56:53;5.50;;;3.13;;
14141;SDS011;7151;52.246;4.820;2023-07-02T00:59:19;8.33;;;3.77;;
14141;SDS011;7151;52.246;4.820;2023-07-02T01:01:44;15.87;;;4.23;;
14141;SDS011;7151;52.246;4.820;2023-07-02T01:04:16;6.87;;;3.60;;
14141;SDS011;7151;52.246;4.820;2023-07-02T01:06:42;8.53;;;4.27;;
14141;SDS011;7151;52.246;4.820;2023-07-02T01:09:11;6.03;;;3.63;;
14141;SDS011;7151;52.246;4.820;2023-07-02T01:11:38;9.43;;;3.90;;
14141;SDS011;7151;52.246;4.820;2023-07-02T01:16:33;13.67;;;3.70;;
14141;SDS011;7151;52.246;4.820;2023-07-02T01:19:01;6.97;;;3.97;;
14141;SDS011;7151;52.246;4.820;2023-07-02T01:21:30;7.50;;;3.40;;
14141;SDS011;7151;52.246;4.820;2023-07-02T01:23:57;7.93;;;3.53;;
14141;SDS011;7151;52.246;4.820;2023-07-02T01:26:27;5.87;;;3.40;;
14141;SDS011;7151;52.246;4.820;2023-07-02T01:28:58;11.20;;;3.77;;
14141;SDS011;7151;52.246;4.820;2023-07-02T01:31:24;8.50;;;3.90;;
14141;SDS011;7151;52.246;4.820;2023-07-02T01:33:51;8.43;;;3.87;;
14141;SDS011;7151;52.246;4.820;2023-07-02T01:36:19;7.27;;;4.53;;
14141;SDS011;7151;52.246;4.820;2023-07-02T01:38:45;8.10;;;3.67;;
14141;SDS011;7151;52.246;4.820;2023-07-02T01:41:10;8.90;;;3.27;;
14141;SDS011;7151;52.246;4.820;2023-07-02T01:43:36;7.17;;;3.53;;
14141;SDS011;7151;52.246;4.820;2023-07-02T01:46:01;8.97;;;3.93;;
14141;SDS011;7151;52.246;4.820;2023-07-02T01:48:27;6.23;;;3.10;;
14141;SDS011;7151;52.246;4.820;2023-07-02T01:50:52;8.13;;;3.80;;
14141;SDS011;7151;52.246;4.820;2023-07-02T01:53:18;6.77;;;4.00;;
14141;SDS011;7151;52.246;4.820;2023-07-02T01:55:43;8.43;;;4.30;;
14141;SDS011;7151;52.246;4.820;2023-07-02T01:58:09;6.13;;;3.63;;
14141;SDS011;7151;52.246;4.820;2023-07-02T02:00:34;7.37;;;3.70;;
14141;SDS011;7151;52.246;4.820;2023-07-02T02:03:01;10.30;;;4.23;;
14141;SDS011;7151;52.246;4.820;2023-07-02T02:05:26;6.20;;;3.37;;
14141;SDS011;7151;52.246;4.820;2023-07-02T02:07:52;6.73;;;3.57;;
14141;SDS011;7151;52.246;4.820;2023-07-02T02:10:17;7.70;;;4.13;;
14141;SDS011;7151;52.246;4.820;2023-07-02T02:12:43;6.57;;;3.93;;
14141;SDS011;7151;52.246;4.820;2023-07-02T02:15:08;8.07;;;4.00;;
14141;SDS011;7151;52.246;4.820;2023-07-02T02:17:35;8.10;;;3.77;;
14141;SDS011;7151;52.246;4.820;2023-07-02T02:20:01;10.07;;;3.33;;
14141;SDS011;7151;52.246;4.820;2023-07-02T02:22:28;11.33;;;4.50;;
14141;SDS011;7151;52.246;4.820;2023-07-02T02:24:53;7.37;;;3.63;;
14141;SDS011;7151;52.246;4.820;2023-07-02T02:27:19;9.37;;;4.23;;
14141;SDS011;7151;52.246;4.820;2023-07-02T02:29:44;10.30;;;5.53;;
14141;SDS011;7151;52.246;4.820;2023-07-02T02:32:10;8.50;;;4.17;;
14141;SDS011;7151;52.246;4.820;2023-07-02T02:34:35;9.60;;;4.53;;
14141;SDS011;7151;52.246;4.820;2023-07-02T02:37:01;5.67;;;3.33;;
14141;SDS011;7151;52.246;4.820;2023-07-02T02:39:26;9.90;;;4.20;;
14141;SDS011;7151;52.246;4.820;2023-07-02T02:41:52;7.43;;;4.40;;
14141;SDS011;7151;52.246;4.820;2023-07-02T02:44:17;10.60;;;4.73;;
14141;SDS011;7151;52.246;4.820;2023-07-02T02:46:46;6.40;;;3.80;;
14141;SDS011;7151;52.246;4.820;2023-07-02T02:49:11;10.77;;;4.33;;
14141;SDS011;7151;52.246;4.820;2023-07-02T02:51:37;10.70;;;4.50;;
14141;SDS011;7151;52.246;4.820;2023-07-02T02:54:02;9.53;;;4.37;;
14141;SDS011;7151;52.246;4.820;2023-07-02T02:56:28;8.57;;;4.27;;
14141;SDS011;7151;52.246;4.820;2023-07-02T02:58:53;5.70;;;3.40;;
14141;SDS011;7151;52.246;4.820;2023-07-02T03:01:19;11.23;;;4.23;;
14141;SDS011;7151;52.246;4.820;2023-07-02T03:03:44;7.77;;;4.17;;
14141;SDS011;7151;52.246;4.820;2023-07-02T03:06:14;8.10;;;4.30;;
14141;SDS011;7151;52.246;4.820;2023-07-02T03:08:39;8.70;;;4.47;;
14141;SDS011;7151;52.246;4.820;2023-07-02T03:11:05;10.07;;;4.33;;
14141;SDS011;7151;52.246;4.820;2023-07-02T03:13:31;9.20;;;3.93;;
14141;SDS011;7151;52.246;4.820;2023-07-02T03:15:56;11.37;;;4.20;;
14141;SDS011;7151;52.246;4.820;2023-07-02T03:18:22;9.23;;;3.93;;
14141;SDS011;7151;52.246;4.820;2023-07-02T03:20:47;8.60;;;4.20;;
14141;SDS011;7151;52.246;4.820;2023-07-02T03:23:13;6.73;;;3.67;;
14141;SDS011;7151;52.246;4.820;2023-07-02T03:25:38;10.13;;;4.73;;
14141;SDS011;7151;52.246;4.820;2023-07-02T03:28:04;9.43;;;3.90;;
14141;SDS011;7151;52.246;4.820;2023-07-02T03:30:29;8.93;;;3.90;;
14141;SDS011;7151;52.246;4.820;2023-07-02T03:32:55;8.90;;;4.73;;
14141;SDS011;7151;52.246;4.820;2023-07-02T03:35:21;7.37;;;3.77;;
14141;SDS011;7151;52.246;4.820;2023-07-02T03:37:46;8.57;;;4.13;;
14141;SDS011;7151;52.246;4.820;2023-07-02T03:40:12;9.07;;;3.63;;
14141;SDS011;7151;52.246;4.820;2023-07-02T03:42:37;13.80;;;4.00;;
14141;SDS011;7151;52.246;4.820;2023-07-02T03:45:03;8.23;;;3.60;;
14141;SDS011;7151;52.246;4.820;2023-07-02T03:47:29;6.87;;;4.00;;
14141;SDS011;7151;52.246;4.820;2023-07-02T03:49:54;11.33;;;4.07;;
14141;SDS011;7151;52.246;4.820;2023-07-02T03:52:20;9.90;;;4.43;;
14141;SDS011;7151;52.246;4.820;2023-07-02T03:54:45;10.50;;;4.10;;
14141;SDS011;7151;52.246;4.820;2023-07-02T03:57:11;9.00;;;3.93;;
14141;SDS011;7151;52.246;4.820;2023-07-02T03:59:36;8.73;;;4.17;;
14141;SDS011;7151;52.246;4.820;2023-07-02T04:02:02;12.07;;;3.83;;
14141;SDS011;7151;52.246;4.820;2023-07-02T04:04:27;7.93;;;3.67;;
14141;SDS011;7151;52.246;4.820;2023-07-02T04:06:53;8.23;;;4.37;;
14141;SDS011;7151;52.246;4.820;2023-07-02T04:09:18;11.13;;;4.63;;
14141;SDS011;7151;52.246;4.820;2023-07-02T04:11:44;10.67;;;4.47;;
14141;SDS011;7151;52.246;4.820;2023-07-02T04:14:10;8.03;;;3.80;;
14141;SDS011;7151;52.246;4.820;2023-07-02T04:16:35;9.77;;;4.67;;
14141;SDS011;7151;52.246;4.820;2023-07-02T04:19:01;6.17;;;3.40;;
14141;SDS011;7151;52.246;4.820;2023-07-02T04:21:27;8.57;;;3.77;;
14141;SDS011;7151;52.246;4.820;2023-07-02T04:23:52;9.33;;;3.93;;
14141;SDS011;7151;52.246;4.820;2023-07-02T04:26:18;5.23;;;3.13;;
14141;SDS011;7151;52.246;4.820;2023-07-02T04:28:43;8.63;;;3.80;;
14141;SDS011;7151;52.246;4.820;2023-07-02T04:31:09;8.23;;;3.33;;
14141;SDS011;7151;52.246;4.820;2023-07-02T04:33:35;7.70;;;3.50;;
14141;SDS011;7151;52.246;4.820;2023-07-02T04:36:03;10.17;;;3.77;;
14141;SDS011;7151;52.246;4.820;2023-07-02T04:38:29;5.57;;;3.33;;
14141;SDS011;7151;52.246;4.820;2023-07-02T04:40:55;8.90;;;3.97;;
14141;SDS011;7151;52.246;4.820;2023-07-02T04:43:26;8.80;;;3.33;;
14141;SDS011;7151;52.246;4.820;2023-07-02T04:45:54;7.83;;;3.50;;
14141;SDS011;7151;52.246;4.820;2023-07-02T04:48:20;10.90;;;3.47;;
14141;SDS011;7151;52.246;4.820;2023-07-02T04:50:45;7.63;;;3.67;;
14141;SDS011;7151;52.246;4.820;2023-07-02T04:53:11;8.47;;;3.43;;
14141;SDS011;7151;52.246;4.820;2023-07-02T04:55:36;7.63;;;3.03;;
14141;SDS011;7151;52.246;4.820;2023-07-02T04:58:02;6.80;;;3.57;;
14141;SDS011;7151;52.246;4.820;2023-07-02T05:00:27;8.50;;;2.73;;
14141;SDS011;7151;52.246;4.820;2023-07-02T05:02:53;7.30;;;2.97;;
14141;SDS011;7151;52.246;4.820;2023-07-02T05:05:18;7.77;;;3.30;;
14141;SDS011;7151;52.246;4.820;2023-07-02T05:07:44;8.83;;;3.77;;
14141;SDS011;7151;52.246;4.820;2023-07-02T05:10:09;8.23;;;3.47;;
14141;SDS011;7151;52.246;4.820;2023-07-02T05:12:35;6.50;;;3.10;;
14141;SDS011;7151;52.246;4.820;2023-07-02T05:15:01;5.90;;;2.30;;
14141;SDS011;7151;52.246;4.820;2023-07-02T05:17:26;6.33;;;3.27;;
14141;SDS011;7151;52.246;4.820;2023-07-02T05:19:52;9.43;;;3.47;;
14141;SDS011;7151;52.246;4.820;2023-07-02T05:22:17;7.00;;;2.70;;
14141;SDS011;7151;52.246;4.820;2023-07-02T05:24:44;6.67;;;3.27;;
14141;SDS011;7151;52.246;4.820;2023-07-02T05:27:09;5.63;;;3.13;;
14141;SDS011;7151;52.246;4.820;2023-07-02T05:29:35;6.13;;;3.10;;
14141;SDS011;7151;52.246;4.820;2023-07-02T05:32:00;6.73;;;3.07;;
14141;SDS011;7151;52.246;4.820;2023-07-02T05:34:26;7.03;;;3.13;;
14141;SDS011;7151;52.246;4.820;2023-07-02T05:36:51;6.57;;;3.37;;
14141;SDS011;7151;52.246;4.820;2023-07-02T05:39:17;11.77;;;3.60;;
14141;SDS011;7151;52.246;4.820;2023-07-02T05:41:42;5.37;;;3.10;;
14141;SDS011;7151;52.246;4.820;2023-07-02T05:44:08;9.43;;;3.40;;
14141;SDS011;7151;52.246;4.820;2023-07-02T05:46:33;11.43;;;3.97;;
14141;SDS011;7151;52.246;4.820;2023-07-02T05:48:59;8.73;;;3.37;;
14141;SDS011;7151;52.246;4.820;2023-07-02T05:51:25;11.37;;;3.60;;
14141;SDS011;7151;52.246;4.820;2023-07-02T05:53:51;8.53;;;3.57;;
14141;SDS011;7151;52.246;4.820;2023-07-02T05:56:17;10.60;;;3.47;;
14141;SDS011;7151;52.246;4.820;2023-07-02T05:58:45;8.83;;;3.03;;
14141;SDS011;7151;52.246;4.820;2023-07-02T06:01:11;5.53;;;2.50;;
14141;SDS011;7151;52.246;4.820;2023-07-02T06:03:37;4.03;;;2.83;;
14141;SDS011;7151;52.246;4.820;2023-07-02T06:06:02;7.13;;;3.00;;
14141;SDS011;7151;52.246;4.820;2023-07-02T06:08:28;9.67;;;3.13;;
14141;SDS011;7151;52.246;4.820;2023-07-02T06:10:54;8.93;;;2.87;;
14141;SDS011;7151;52.246;4.820;2023-07-02T06:13:19;7.83;;;3.10;;
14141;SDS011;7151;52.246;4.820;2023-07-02T06:15:45;9.53;;;3.13;;
14141;SDS011;7151;52.246;4.820;2023-07-02T06:18:12;12.23;;;3.00;;
14141;SDS011;7151;52.246;4.820;2023-07-02T06:20:37;7.57;;;2.97;;
14141;SDS011;7151;52.246;4.820;2023-07-02T06:23:03;8.20;;;3.40;;
14141;SDS011;7151;52.246;4.820;2023-07-02T06:25:28;7.10;;;2.83;;
14141;SDS011;7151;52.246;4.820;2023-07-02T06:27:54;3.90;;;2.73;;
14141;SDS011;7151;52.246;4.820;2023-07-02T06:30:23;6.20;;;2.60;;
14141;SDS011;7151;52.246;4.820;2023-07-02T06:32:51;4.63;;;2.70;;
14141;SDS011;7151;52.246;4.820;2023-07-02T06:35:17;11.50;;;3.40;;
14141;SDS011;7151;52.246;4.820;2023-07-02T06:37:43;4.63;;;2.73;;
14141;SDS011;7151;52.246;4.820;2023-07-02T06:40:09;6.17;;;3.10;;
14141;SDS011;7151;52.246;4.820;2023-07-02T06:42:34;7.70;;;3.00;;
14141;SDS011;7151;52.246;4.820;2023-07-02T06:45:01;7.33;;;3.20;;
14141;SDS011;7151;52.246;4.820;2023-07-02T06:47:27;7.23;;;2.93;;
14141;SDS011;7151;52.246;4.820;2023-07-02T06:49:52;6.10;;;3.03;;
14141;SDS011;7151;52.246;4.820;2023-07-02T06:52:18;4.77;;;2.73;;
14141;SDS011;7151;52.246;4.820;2023-07-02T06:54:43;11.60;;;3.10;;
14141;SDS011;7151;52.246;4.820;2023-07-02T06:57:09;5.43;;;3.13;;
14141;SDS011;7151;52.246;4.820;2023-07-02T06:59:34;8.90;;;3.20;;
14141;SDS011;7151;52.246;4.820;2023-07-02T07:02:01;3.93;;;2.10;;
14141;SDS011;7151;52.246;4.820;2023-07-02T07:04:27;5.40;;;2.37;;
14141;SDS011;7151;52.246;4.820;2023-07-02T07:06:53;4.07;;;2.43;;
14141;SDS011;7151;52.246;4.820;2023-07-02T07:09:20;5.97;;;2.97;;
14141;SDS011;7151;52.246;4.820;2023-07-02T07:11:46;8.23;;;2.83;;
14141;SDS011;7151;52.246;4.820;2023-07-02T07:14:11;11.73;;;3.30;;
14141;SDS011;7151;52.246;4.820;2023-07-02T07:16:37;11.07;;;4.13;;
14141;SDS011;7151;52.246;4.820;2023-07-02T07:19:02;6.40;;;3.17;;
14141;SDS011;7151;52.246;4.820;2023-07-02T07:21:28;7.60;;;3.47;;
14141;SDS011;7151;52.246;4.820;2023-07-02T07:23:53;9.83;;;2.93;;
14141;SDS011;7151;52.246;4.820;2023-07-02T07:26:19;5.93;;;2.80;;
14141;SDS011;7151;52.246;4.820;2023-07-02T07:28:44;13.07;;;3.20;;
14141;SDS011;7151;52.246;4.820;2023-07-02T07:31:10;5.87;;;3.03;;
14141;SDS011;7151;52.246;4.820;2023-07-02T07:33:35;10.27;;;3.00;;
14141;SDS011;7151;52.246;4.820;2023-07-02T07:36:01;4.70;;;3.03;;
14141;SDS011;7151;52.246;4.820;2023-07-02T07:38:27;6.80;;;2.83;;
14141;SDS011;7151;52.246;4.820;2023-07-02T07:40:52;4.93;;;3.27;;
14141;SDS011;7151;52.246;4.820;2023-07-02T07:43:18;4.03;;;2.40;;
14141;SDS011;7151;52.246;4.820;2023-07-02T07:45:43;5.10;;;2.47;;
14141;SDS011;7151;52.246;4.820;2023-07-02T07:48:09;7.70;;;3.30;;
14141;SDS011;7151;52.246;4.820;2023-07-02T07:50:34;5.90;;;2.63;;
14141;SDS011;7151;52.246;4.820;2023-07-02T07:53:00;4.93;;;2.83;;
14141;SDS011;7151;52.246;4.820;2023-07-02T07:55:25;4.90;;;2.70;;
14141;SDS011;7151;52.246;4.820;2023-07-02T07:57:51;5.90;;;3.00;;
14141;SDS011;7151;52.246;4.820;2023-07-02T08:00:16;7.43;;;2.70;;
14141;SDS011;7151;52.246;4.820;2023-07-02T08:02:46;4.10;;;2.47;;
14141;SDS011;7151;52.246;4.820;2023-07-02T08:05:12;6.63;;;2.60;;
14141;SDS011;7151;52.246;4.820;2023-07-02T08:07:38;6.00;;;3.60;;
14141;SDS011;7151;52.246;4.820;2023-07-02T08:10:05;6.50;;;2.60;;
14141;SDS011;7151;52.246;4.820;2023-07-02T08:12:32;5.30;;;2.70;;
14141;SDS011;7151;52.246;4.820;2023-07-02T08:14:58;3.90;;;3.03;;
14141;SDS011;7151;52.246;4.820;2023-07-02T08:17:24;4.07;;;2.40;;
14141;SDS011;7151;52.246;4.820;2023-07-02T08:19:49;8.43;;;2.87;;
14141;SDS011;7151;52.246;4.820;2023-07-02T08:22:15;9.03;;;2.83;;
14141;SDS011;7151;52.246;4.820;2023-07-02T08:24:40;8.77;;;2.83;;
14141;SDS011;7151;52.246;4.820;2023-07-02T08:27:06;5.00;;;2.87;;
14141;SDS011;7151;52.246;4.820;2023-07-02T08:29:32;6.57;;;2.60;;
14141;SDS011;7151;52.246;4.820;2023-07-02T08:31:58;9.10;;;2.83;;
14141;SDS011;7151;52.246;4.820;2023-07-02T08:34:24;6.17;;;2.63;;
14141;SDS011;7151;52.246;4.820;2023-07-02T08:36:49;3.63;;;2.23;;
14141;SDS011;7151;52.246;4.820;2023-07-02T08:39:16;6.47;;;2.17;;
14141;SDS011;7151;52.246;4.820;2023-07-02T08:41:43;4.83;;;2.30;;
14141;SDS011;7151;52.246;4.820;2023-07-02T08:44:09;6.47;;;2.57;;
14141;SDS011;7151;52.246;4.820;2023-07-02T08:46:35;8.17;;;2.50;;
14141;SDS011;7151;52.246;4.820;2023-07-02T08:49:01;4.07;;;2.60;;
14141;SDS011;7151;52.246;4.820;2023-07-02T08:51:26;7.70;;;3.07;;
14141;SDS011;7151;52.246;4.820;2023-07-02T08:53:52;6.70;;;2.80;;
14141;SDS011;7151;52.246;4.820;2023-07-02T08:56:17;7.90;;;3.07;;
14141;SDS011;7151;52.246;4.820;2023-07-02T08:58:43;5.27;;;2.50;;
14141;SDS011;7151;52.246;4.820;2023-07-02T09:01:13;4.00;;;2.60;;
14141;SDS011;7151;52.246;4.820;2023-07-02T09:03:40;3.43;;;2.17;;
14141;SDS011;7151;52.246;4.820;2023-07-02T09:06:09;5.67;;;2.37;;
14141;SDS011;7151;52.246;4.820;2023-07-02T09:08:36;9.40;;;2.17;;
14141;SDS011;7151;52.246;4.820;2023-07-02T09:11:12;3.10;;;1.97;;
14141;SDS011;7151;52.246;4.820;2023-07-02T09:16:20;7.17;;;2.30;;
14141;SDS011;7151;52.246;4.820;2023-07-02T09:19:07;4.70;;;2.47;;
14141;SDS011;7151;52.246;4.820;2023-07-02T09:21:46;5.03;;;2.20;;
14141;SDS011;7151;52.246;4.820;2023-07-02T09:24:16;6.20;;;1.93;;
14141;SDS011;7151;52.246;4.820;2023-07-02T09:26:46;3.33;;;2.30;;
14141;SDS011;7151;52.246;4.820;2023-07-02T09:29:18;5.90;;;2.20;;
14141;SDS011;7151;52.246;4.820;2023-07-02T09:31:55;5.40;;;2.33;;
14141;SDS011;7151;52.246;4.820;2023-07-02T09:34:29;5.00;;;2.47;;
14141;SDS011;7151;52.246;4.820;2023-07-02T09:36:59;5.00;;;2.00;;
14141;SDS011;7151;52.246;4.820;2023-07-02T09:39:27;4.57;;;2.20;;
14141;SDS011;7151;52.246;4.820;2023-07-02T09:41:57;3.90;;;2.00;;
14141;SDS011;7151;52.246;4.820;2023-07-02T09:44:28;7.17;;;2.33;;
14141;SDS011;7151;52.246;4.820;2023-07-02T09:47:04;5.30;;;2.27;;
14141;SDS011;7151;52.246;4.820;2023-07-02T09:49:32;3.43;;;1.73;;
14141;SDS011;7151;52.246;4.820;2023-07-02T09:51:59;5.00;;;2.10;;
14141;SDS011;7151;52.246;4.820;2023-07-02T09:54:27;4.67;;;2.33;;
14141;SDS011;7151;52.246;4.820;2023-07-02T09:56:54;3.53;;;2.33;;
14141;SDS011;7151;52.246;4.820;2023-07-02T09:59:20;3.37;;;1.97;;
14141;SDS011;7151;52.246;4.820;2023-07-02T10:01:46;5.50;;;2.10;;
14141;SDS011;7151;52.246;4.820;2023-07-02T10:04:13;4.77;;;2.23;;
14141;SDS011;7151;52.246;4.820;2023-07-02T10:06:49;3.97;;;1.80;;
14141;SDS011;7151;52.246;4.820;2023-07-02T10:09:19;5.73;;;2.50;;
14141;SDS011;7151;52.246;4.820;2023-07-02T10:11:46;3.97;;;2.43;;
14141;SDS011;7151;52.246;4.820;2023-07-02T10:14:12;5.13;;;2.13;;
14141;SDS011;7151;52.246;4.820;2023-07-02T10:16:52;4.50;;;1.73;;
14141;SDS011;7151;52.246;4.820;2023-07-02T10:19:18;4.93;;;2.00;;
14141;SDS011;7151;52.246;4.820;2023-07-02T10:21:44;5.03;;;2.13;;
14141;SDS011;7151;52.246;4.820;2023-07-02T10:24:16;4.10;;;2.20;;
14141;SDS011;7151;52.246;4.820;2023-07-02T10:26:54;3.67;;;2.20;;
14141;SDS011;7151;52.246;4.820;2023-07-02T10:29:24;4.57;;;1.87;;
14141;SDS011;7151;52.246;4.820;2023-07-02T10:31:51;3.30;;;1.93;;
14141;SDS011;7151;52.246;4.820;2023-07-02T10:34:38;3.60;;;2.30;;
14141;SDS011;7151;52.246;4.820;2023-07-02T10:37:03;3.30;;;1.83;;
14141;SDS011;7151;52.246;4.820;2023-07-02T10:39:29;6.17;;;2.53;;
14141;SDS011;7151;52.246;4.820;2023-07-02T10:42:05;3.93;;;2.20;;
14141;SDS011;7151;52.246;4.820;2023-07-02T10:44:35;4.37;;;2.93;;
14141;SDS011;7151;52.246;4.820;2023-07-02T10:47:12;4.27;;;2.30;;
14141;SDS011;7151;52.246;4.820;2023-07-02T10:49:40;3.90;;;2.10;;
14141;SDS011;7151;52.246;4.820;2023-07-02T10:52:06;6.33;;;2.47;;
14141;SDS011;7151;52.246;4.820;2023-07-02T10:54:44;3.30;;;2.13;;
14141;SDS011;7151;52.246;4.820;2023-07-02T10:57:13;4.43;;;2.40;;
14141;SDS011;7151;52.246;4.820;2023-07-02T10:59:41;4.33;;;2.07;;
14141;SDS011;7151;52.246;4.820;2023-07-02T11:02:06;3.63;;;2.10;;
14141;SDS011;7151;52.246;4.820;2023-07-02T11:04:33;6.33;;;2.80;;
14141;SDS011;7151;52.246;4.820;2023-07-02T11:06:59;6.87;;;2.37;;
14141;SDS011;7151;52.246;4.820;2023-07-02T11:09:25;5.93;;;2.33;;
14141;SDS011;7151;52.246;4.820;2023-07-02T11:11:55;3.87;;;2.33;;
14141;SDS011;7151;52.246;4.820;2023-07-02T11:14:32;5.13;;;2.80;;
14141;SDS011;7151;52.246;4.820;2023-07-02T11:16:59;3.37;;;2.20;;
14141;SDS011;7151;52.246;4.820;2023-07-02T11:19:28;6.53;;;2.10;;
14141;SDS011;7151;52.246;4.820;2023-07-02T11:21:55;6.97;;;2.10;;
14141;SDS011;7151;52.246;4.820;2023-07-02T11:24:36;5.97;;;2.43;;
14141;SDS011;7151;52.246;4.820;2023-07-02T11:27:03;4.23;;;2.40;;
14141;SDS011;7151;52.246;4.820;2023-07-02T11:29:33;5.20;;;2.10;;
14141;SDS011;7151;52.246;4.820;2023-07-02T11:32:09;3.40;;;2.00;;
14141;SDS011;7151;52.246;4.820;2023-07-02T11:34:35;5.73;;;2.73;;
14141;SDS011;7151;52.246;4.820;2023-07-02T11:37:02;5.03;;;2.13;;
14141;SDS011;7151;52.246;4.820;2023-07-02T11:39:29;4.30;;;2.53;;
14141;SDS011;7151;52.246;4.820;2023-07-02T11:41:55;3.97;;;2.30;;
14141;SDS011;7151;52.246;4.820;2023-07-02T11:44:20;3.63;;;2.63;;
14141;SDS011;7151;52.246;4.820;2023-07-02T11:46:46;5.07;;;2.03;;
14141;SDS011;7151;52.246;4.820;2023-07-02T11:49:12;5.30;;;2.40;;
14141;SDS011;7151;52.246;4.820;2023-07-02T11:51:41;5.23;;;2.37;;
14141;SDS011;7151;52.246;4.820;2023-07-02T11:54:13;5.67;;;2.17;;
14141;SDS011;7151;52.246;4.820;2023-07-02T11:56:39;2.93;;;2.33;;
14141;SDS011;7151;52.246;4.820;2023-07-02T11:59:07;5.23;;;2.40;;
14141;SDS011;7151;52.246;4.820;2023-07-02T12:01:32;4.53;;;1.73;;
14141;SDS011;7151;52.246;4.820;2023-07-02T12:03:58;4.63;;;2.17;;
14141;SDS011;7151;52.246;4.820;2023-07-02T12:06:24;5.50;;;2.53;;
14141;SDS011;7151;52.246;4.820;2023-07-02T12:08:49;3.27;;;2.20;;
14141;SDS011;7151;52.246;4.820;2023-07-02T12:11:15;5.30;;;2.27;;
14141;SDS011;7151;52.246;4.820;2023-07-02T12:13:41;4.37;;;2.10;;
14141;SDS011;7151;52.246;4.820;2023-07-02T12:16:06;4.77;;;2.37;;
14141;SDS011;7151;52.246;4.820;2023-07-02T12:18:32;6.60;;;2.00;;
14141;SDS011;7151;52.246;4.820;2023-07-02T12:20:57;5.47;;;2.17;;
14141;SDS011;7151;52.246;4.820;2023-07-02T12:23:23;6.00;;;2.33;;
14141;SDS011;7151;52.246;4.820;2023-07-02T12:25:48;7.67;;;2.97;;
14141;SDS011;7151;52.246;4.820;2023-07-02T12:28:14;4.63;;;2.30;;
14141;SDS011;7151;52.246;4.820;2023-07-02T12:30:40;6.20;;;2.57;;
14141;SDS011;7151;52.246;4.820;2023-07-02T12:33:05;6.17;;;2.80;;
14141;SDS011;7151;52.246;4.820;2023-07-02T12:35:31;6.27;;;2.97;;
14141;SDS011;7151;52.246;4.820;2023-07-02T12:37:56;3.77;;;2.37;;
14141;SDS011;7151;52.246;4.820;2023-07-02T12:40:22;6.73;;;3.43;;
14141;SDS011;7151;52.246;4.820;2023-07-02T12:42:47;4.63;;;2.47;;
14141;SDS011;7151;52.246;4.820;2023-07-02T12:45:14;7.57;;;2.33;;
14141;SDS011;7151;52.246;4.820;2023-07-02T12:47:40;4.50;;;2.10;;
14141;SDS011;7151;52.246;4.820;2023-07-02T12:50:07;5.10;;;2.50;;
14141;SDS011;7151;52.246;4.820;2023-07-02T12:52:33;5.13;;;2.53;;
14141;SDS011;7151;52.246;4.820;2023-07-02T12:55:00;6.27;;;3.03;;
14141;SDS011;7151;52.246;4.820;2023-07-02T12:57:26;4.77;;;2.73;;
14141;SDS011;7151;52.246;4.820;2023-07-02T12:59:55;6.17;;;2.80;;
14141;SDS011;7151;52.246;4.820;2023-07-02T13:02:21;7.47;;;2.83;;
14141;SDS011;7151;52.246;4.820;2023-07-02T13:04:47;4.50;;;2.40;;
14141;SDS011;7151;52.246;4.820;2023-07-02T13:07:13;3.50;;;2.20;;
14141;SDS011;7151;52.246;4.820;2023-07-02T13:09:39;4.13;;;2.50;;
14141;SDS011;7151;52.246;4.820;2023-07-02T13:12:05;5.63;;;2.20;;
14141;SDS011;7151;52.246;4.820;2023-07-02T13:14:31;7.27;;;2.93;;
14141;SDS011;7151;52.246;4.820;2023-07-02T13:16:56;4.97;;;2.40;;
14141;SDS011;7151;52.246;4.820;2023-07-02T13:19:24;8.37;;;2.90;;
14141;SDS011;7151;52.246;4.820;2023-07-02T13:21:49;2.93;;;2.43;;
14141;SDS011;7151;52.246;4.820;2023-07-02T13:24:15;7.00;;;2.60;;
14141;SDS011;7151;52.246;4.820;2023-07-02T13:26:40;4.80;;;2.33;;
14141;SDS011;7151;52.246;4.820;2023-07-02T13:29:06;7.77;;;2.63;;
14141;SDS011;7151;52.246;4.820;2023-07-02T13:31:31;5.73;;;2.40;;
14141;SDS011;7151;52.246;4.820;2023-07-02T13:33:57;3.47;;;1.87;;
14141;SDS011;7151;52.246;4.820;2023-07-02T13:36:23;3.10;;;2.33;;
14141;SDS011;7151;52.246;4.820;2023-07-02T13:38:48;6.17;;;2.23;;
14141;SDS011;7151;52.246;4.820;2023-07-02T13:41:14;3.10;;;2.17;;
14141;SDS011;7151;52.246;4.820;2023-07-02T13:43:39;5.37;;;2.53;;
14141;SDS011;7151;52.246;4.820;2023-07-02T13:46:05;2.90;;;2.20;;
14141;SDS011;7151;52.246;4.820;2023-07-02T13:48:30;4.90;;;2.37;;
14141;SDS011;7151;52.246;4.820;2023-07-02T13:50:56;3.63;;;2.43;;
14141;SDS011;7151;52.246;4.820;2023-07-02T13:53:21;8.53;;;2.50;;
14141;SDS011;7151;52.246;4.820;2023-07-02T13:55:47;4.33;;;2.10;;
14141;SDS011;7151;52.246;4.820;2023-07-02T13:58:13;7.43;;;2.50;;
14141;SDS011;7151;52.246;4.820;2023-07-02T14:00:38;4.60;;;2.20;;
14141;SDS011;7151;52.246;4.820;2023-07-02T14:03:04;3.77;;;2.33;;
14141;SDS011;7151;52.246;4.820;2023-07-02T14:05:30;5.30;;;2.27;;
14141;SDS011;7151;52.246;4.820;2023-07-02T14:07:56;5.63;;;2.00;;
14141;SDS011;7151;52.246;4.820;2023-07-02T14:10:22;5.93;;;2.73;;
14141;SDS011;7151;52.246;4.820;2023-07-02T14:12:47;2.93;;;2.10;;
14141;SDS011;7151;52.246;4.820;2023-07-02T14:15:13;3.77;;;1.90;;
14141;SDS011;7151;52.246;4.820;2023-07-02T14:17:39;3.80;;;2.17;;
14141;SDS011;7151;52.246;4.820;2023-07-02T14:20:05;6.13;;;2.20;;
14141;SDS011;7151;52.246;4.820;2023-07-02T14:22:32;4.60;;;2.10;;
14141;SDS011;7151;52.246;4.820;2023-07-02T14:24:57;4.47;;;2.28;;
14141;SDS011;7151;52.246;4.820;2023-07-02T14:27:23;5.63;;;2.47;;
14141;SDS011;7151;52.246;4.820;2023-07-02T14:29:48;4.93;;;2.42;;
14141;SDS011;7151;52.246;4.820;2023-07-02T14:32:14;2.85;;;2.08;;
14141;SDS011;7151;52.246;4.820;2023-07-02T14:34:40;4.63;;;2.40;;
14141;SDS011;7151;52.246;4.820;2023-07-02T14:37:06;3.20;;;2.28;;
14141;SDS011;7151;52.246;4.820;2023-07-02T14:39:32;5.28;;;1.98;;
14141;SDS011;7151;52.246;4.820;2023-07-02T14:41:58;4.03;;;2.28;;
14141;SDS011;7151;52.246;4.820;2023-07-02T14:44:23;6.97;;;2.58;;
14141;SDS011;7151;52.246;4.820;2023-07-02T14:46:49;5.40;;;1.77;;
14141;SDS011;7151;52.246;4.820;2023-07-02T14:49:15;6.05;;;2.15;;
14141;SDS011;7151;52.246;4.820;2023-07-02T14:51:40;4.30;;;2.13;;
14141;SDS011;7151;52.246;4.820;2023-07-02T14:54:06;4.20;;;2.28;;
14141;SDS011;7151;52.246;4.820;2023-07-02T14:56:32;3.80;;;1.80;;
14141;SDS011;7151;52.246;4.820;2023-07-02T14:59:00;3.90;;;2.13;;
14141;SDS011;7151;52.246;4.820;2023-07-02T15:01:26;5.63;;;2.17;;